createdAt,value
2019-04-06T00:00:47.627Z,100824.63
2019-04-06T00:01:45.544Z,100827.58
2019-04-06T00:02:25.602Z,100826.78
2019-04-06T00:03:01.743Z,100825.43
2019-04-06T00:03:37.920Z,100829.73
2019-04-06T00:04:14.100Z,100834.30
2019-04-06T00:04:50.400Z,100830.52
2019-04-06T00:05:26.579Z,100830.78
2019-04-06T00:06:02.797Z,100832.64
2019-04-06T00:06:39.064Z,100834.52
2019-04-06T00:07:15.257Z,100834.77
2019-04-06T00:07:51.649Z,100833.42
2019-04-06T00:08:27.803Z,100832.89
2019-04-06T00:09:05.274Z,100837.45
2019-04-06T00:09:41.587Z,100834.19
2019-04-06T00:10:17.998Z,100836.34
2019-04-06T00:10:55.269Z,100832.02
2019-04-06T00:11:31.509Z,100839.02
2019-04-06T00:12:07.696Z,100839.28
2019-04-06T00:12:44.030Z,100839.80
2019-04-06T00:13:20.419Z,100840.58
2019-04-06T00:13:56.556Z,100840.81
2019-04-06T00:14:32.721Z,100839.70
2019-04-06T00:15:09.284Z,100842.38
2019-04-06T00:15:45.570Z,100843.16
2019-04-06T00:16:22.020Z,100850.42
2019-04-06T00:16:58.319Z,100850.34
2019-04-06T00:17:34.844Z,100843.31
2019-04-06T00:18:10.801Z,100848.66
2019-04-06T00:18:46.924Z,100849.11
2019-04-06T00:19:23.017Z,100849.86
2019-04-06T00:19:59.067Z,100856.03
2019-04-06T00:20:35.103Z,100847.84
2019-04-06T00:21:11.406Z,100851.55
2019-04-06T00:21:47.669Z,100848.49
2019-04-06T00:22:23.865Z,100848.78
2019-04-06T00:23:00.065Z,100843.38
2019-04-06T00:23:36.254Z,100843.38
2019-04-06T00:24:12.379Z,100848.78
2019-04-06T00:24:48.481Z,100850.13
2019-04-06T00:25:24.644Z,100848.75
2019-04-06T00:26:00.731Z,100849.26
2019-04-06T00:26:37.599Z,100851.67
2019-04-06T00:27:13.812Z,100857.03
2019-04-06T00:27:49.912Z,100857.55
2019-04-06T00:28:25.991Z,100847.84
2019-04-06T00:29:01.960Z,100849.45
2019-04-06T00:29:38.027Z,100852.85
2019-04-06T00:30:15.289Z,100861.97
2019-04-06T00:31:07.857Z,100861.97
2019-04-06T00:32:11.700Z,100851.75
2019-04-06T00:32:52.376Z,100859.78
2019-04-06T00:33:28.651Z,100857.59
2019-04-06T00:34:04.652Z,100855.45
2019-04-06T00:34:40.803Z,100856.72
2019-04-06T00:35:17.811Z,100867.42
2019-04-06T00:35:53.926Z,100867.42
2019-04-06T00:36:30.007Z,100865.30
2019-04-06T00:37:11.507Z,100874.17
2019-04-06T00:37:47.894Z,100874.47
2019-04-06T00:38:24.097Z,100875.48
2019-04-06T00:39:00.472Z,100875.66
2019-04-06T00:39:36.834Z,100875.34
2019-04-06T00:40:13.278Z,100870.22
2019-04-06T00:40:49.385Z,100872.03
2019-04-06T00:41:25.704Z,100875.80
2019-04-06T00:42:02.017Z,100879.05
2019-04-06T00:42:38.218Z,100879.05
2019-04-06T00:43:14.508Z,100886.06
2019-04-06T00:43:50.660Z,100885.52
2019-04-06T00:44:26.852Z,100882.52
2019-04-06T00:45:03.167Z,100891.42
2019-04-06T00:45:39.495Z,100891.42
2019-04-06T00:46:15.666Z,100881.70
2019-04-06T00:46:51.669Z,100888.69
2019-04-06T00:47:28.585Z,100895.95
2019-04-06T00:48:05.536Z,100895.95
2019-04-06T00:48:41.800Z,100889.45
2019-04-06T00:49:18.102Z,100895.84
2019-04-06T00:49:54.291Z,100895.84
2019-04-06T00:50:30.592Z,100897.70
2019-04-06T00:51:06.719Z,100894.19
2019-04-06T00:51:43.023Z,100895.03
2019-04-06T00:52:19.445Z,100894.52
2019-04-06T00:52:55.536Z,100894.52
2019-04-06T00:53:31.821Z,100888.94
2019-04-06T00:54:08.066Z,100903.22
2019-04-06T00:54:44.260Z,100892.48
2019-04-06T00:55:20.484Z,100892.48
2019-04-06T00:55:56.561Z,100900.27
2019-04-06T00:56:33.549Z,100902.97
2019-04-06T00:57:09.660Z,100902.97
2019-04-06T00:57:45.788Z,100900.81
2019-04-06T00:58:22.110Z,100890.63
2019-04-06T00:58:58.291Z,100890.63
2019-04-06T00:59:34.447Z,100907.02
2019-04-06T01:00:10.657Z,100901.06
2019-04-06T01:00:46.734Z,100902.97
2019-04-06T01:01:22.857Z,100902.97
2019-04-06T01:01:59.134Z,100905.41
2019-04-06T01:02:35.526Z,100905.41
2019-04-06T01:03:12.107Z,100907.31
2019-04-06T01:03:48.077Z,100903.04
2019-04-06T01:04:24.218Z,100901.94
2019-04-06T01:05:00.316Z,100904.94
2019-04-06T01:05:37.229Z,100904.94
2019-04-06T01:06:13.402Z,100904.39
2019-04-06T01:06:49.542Z,100904.43
2019-04-06T01:07:25.650Z,100904.43
2019-04-06T01:08:01.802Z,100904.98
2019-04-06T01:08:38.009Z,100905.23
2019-04-06T01:09:14.855Z,100905.23
2019-04-06T01:09:51.136Z,100914.95
2019-04-06T01:10:27.350Z,100908.95
2019-04-06T01:11:03.577Z,100908.95
2019-04-06T01:11:39.871Z,100909.47
2019-04-06T01:12:16.025Z,100917.80
2019-04-06T01:12:52.297Z,100909.64
2019-04-06T01:13:28.589Z,100905.26
2019-04-06T01:14:04.916Z,100910.91
2019-04-06T01:14:41.057Z,100912.40
2019-04-06T01:15:17.241Z,100912.40
2019-04-06T01:15:53.503Z,100916.55
2019-04-06T01:16:29.824Z,100914.88
2019-04-06T01:17:06.044Z,100905.92
2019-04-06T01:17:42.759Z,100905.92
2019-04-06T01:18:18.880Z,100906.63
2019-04-06T01:18:55.057Z,100913.67
2019-04-06T01:19:31.187Z,100919.75
2019-04-06T01:20:07.668Z,100919.75
2019-04-06T01:20:43.789Z,100913.69
2019-04-06T01:21:19.971Z,100918.48
2019-04-06T01:21:56.299Z,100911.97
2019-04-06T01:22:33.125Z,100921.30
2019-04-06T01:23:09.276Z,100924.75
2019-04-06T01:23:45.630Z,100919.73
2019-04-06T01:24:21.780Z,100919.73
2019-04-06T01:24:58.073Z,100917.52
2019-04-06T01:25:34.342Z,100924.84
2019-04-06T01:26:10.421Z,100919.42
2019-04-06T01:26:47.177Z,100921.63
2019-04-06T01:27:23.694Z,100916.47
2019-04-06T01:27:59.985Z,100920.17
2019-04-06T01:28:36.236Z,100920.67
2019-04-06T01:29:12.337Z,100920.38
2019-04-06T01:29:48.598Z,100919.27
2019-04-06T01:30:25.004Z,100920.58
2019-04-06T01:31:01.321Z,100921.01
2019-04-06T01:31:37.942Z,100920.30
2019-04-06T01:32:13.916Z,100920.34
2019-04-06T01:32:50.295Z,100918.08
2019-04-06T01:33:26.363Z,100921.98
2019-04-06T01:34:02.410Z,100926.38
2019-04-06T01:34:38.569Z,100930.75
2019-04-06T01:35:15.216Z,100932.55
2019-04-06T01:35:51.482Z,100932.89
2019-04-06T01:36:27.701Z,100930.06
2019-04-06T01:37:03.711Z,100930.87
2019-04-06T01:37:39.799Z,100932.89
2019-04-06T01:38:15.953Z,100933.84
2019-04-06T01:38:52.043Z,100938.27
2019-04-06T01:39:28.457Z,100939.19
2019-04-06T01:40:05.223Z,100941.09
2019-04-06T01:40:41.651Z,100939.85
2019-04-06T01:41:17.992Z,100938.55
2019-04-06T01:41:54.474Z,100937.22
2019-04-06T01:42:30.750Z,100936.83
2019-04-06T01:43:07.219Z,100936.59
2019-04-06T01:43:44.633Z,100936.09
2019-04-06T01:44:21.241Z,100941.01
2019-04-06T01:44:57.351Z,100935.03
2019-04-06T01:45:33.324Z,100934.23
2019-04-06T01:46:09.402Z,100935.84
2019-04-06T01:46:45.628Z,100939.91
2019-04-06T01:47:21.844Z,100938.85
2019-04-06T01:47:58.008Z,100940.81
2019-04-06T01:48:34.673Z,100940.56
2019-04-06T01:49:10.927Z,100935.70
2019-04-06T01:49:47.206Z,100939.51
2019-04-06T01:50:23.498Z,100943.84
2019-04-06T01:50:59.627Z,100951.70
2019-04-06T01:51:35.831Z,100947.91
2019-04-06T01:52:12.563Z,100950.09
2019-04-06T01:52:49.299Z,100944.98
2019-04-06T01:53:25.478Z,100944.98
2019-04-06T01:54:01.605Z,100949.89
2019-04-06T01:54:37.845Z,100948.54
2019-04-06T01:55:14.195Z,100952.60
2019-04-06T01:55:50.349Z,100949.29
2019-04-06T01:56:26.525Z,100947.69
2019-04-06T01:57:03.311Z,100947.44
2019-04-06T01:57:39.404Z,100947.69
2019-04-06T01:58:15.589Z,100948.79
2019-04-06T01:58:51.738Z,100943.38
2019-04-06T01:59:27.942Z,100940.91
2019-04-06T02:00:04.219Z,100945.23
2019-04-06T02:00:42.967Z,100947.11
2019-04-06T02:01:24.362Z,100947.64
2019-04-06T02:02:25.213Z,100946.53
2019-04-06T02:03:01.313Z,100948.94
2019-04-06T02:03:37.481Z,100948.64
2019-04-06T02:04:13.865Z,100949.75
2019-04-06T02:04:50.099Z,100945.43
2019-04-06T02:05:27.200Z,100952.45
2019-04-06T02:06:04.089Z,100946.78
2019-04-06T02:06:40.427Z,100940.01
2019-04-06T02:07:16.715Z,100938.91
2019-04-06T02:07:53.138Z,100940.51
2019-04-06T02:08:29.258Z,100937.55
2019-04-06T02:09:06.265Z,100937.30
2019-04-06T02:09:42.689Z,100938.10
2019-04-06T02:10:19.086Z,100942.16
2019-04-06T02:10:55.410Z,100941.61
2019-04-06T02:11:31.568Z,100937.80
2019-04-06T02:12:07.878Z,100940.51
2019-04-06T02:12:44.100Z,100942.11
2019-04-06T02:13:20.145Z,100942.61
2019-04-06T02:13:56.150Z,100942.86
2019-04-06T02:14:32.139Z,100944.47
2019-04-06T02:15:08.900Z,100943.36
2019-04-06T02:15:45.129Z,100948.23
2019-04-06T02:16:21.412Z,100949.03
2019-04-06T02:16:57.780Z,100947.92
2019-04-06T02:17:33.957Z,100957.11
2019-04-06T02:18:10.494Z,100952.73
2019-04-06T02:18:46.776Z,100950.22
2019-04-06T02:19:23.125Z,100949.42
2019-04-06T02:19:59.258Z,100954.27
2019-04-06T02:20:35.433Z,100949.34
2019-04-06T02:21:11.627Z,100953.66
2019-04-06T02:21:48.011Z,100948.48
2019-04-06T02:22:24.025Z,100949.53
2019-04-06T02:23:00.498Z,100948.13
2019-04-06T02:23:36.648Z,100950.78
2019-04-06T02:24:12.931Z,100948.26
2019-04-06T02:24:49.218Z,100945.55
2019-04-06T02:25:25.367Z,100944.44
2019-04-06T02:26:01.630Z,100943.27
2019-04-06T02:26:37.815Z,100949.41
2019-04-06T02:27:14.278Z,100942.02
2019-04-06T02:27:50.671Z,100942.52
2019-04-06T02:28:26.810Z,100945.73
2019-04-06T02:29:02.903Z,100946.50
2019-04-06T02:29:39.335Z,100941.17
2019-04-06T02:30:28.270Z,100946.54
2019-04-06T02:31:25.865Z,100943.09
2019-04-06T02:32:26.794Z,100944.81
2019-04-06T02:33:19.924Z,100948.28
2019-04-06T02:34:13.164Z,100943.07
2019-04-06T02:35:11.115Z,100946.73
2019-04-06T02:36:16.029Z,100946.23
2019-04-06T02:37:09.661Z,100948.73
2019-04-06T02:38:07.473Z,100949.09
2019-04-06T02:39:06.678Z,100949.78
2019-04-06T02:40:01.789Z,100955.84
2019-04-06T02:40:48.031Z,100961.61
2019-04-06T02:41:41.125Z,100960.98
2019-04-06T02:42:20.711Z,100959.83
2019-04-06T02:43:04.163Z,100962.27
2019-04-06T02:43:40.541Z,100963.20
2019-04-06T02:44:16.883Z,100964.45
2019-04-06T02:44:53.528Z,100970.33
2019-04-06T02:45:29.811Z,100964.83
2019-04-06T02:46:05.992Z,100964.59
2019-04-06T02:46:42.249Z,100963.79
2019-04-06T02:47:18.575Z,100962.43
2019-04-06T02:47:54.707Z,100959.14
2019-04-06T02:48:31.600Z,100961.24
2019-04-06T02:49:08.054Z,100962.48
2019-04-06T02:49:44.285Z,100961.38
2019-04-06T02:50:20.593Z,100967.33
2019-04-06T02:50:56.841Z,100956.61
2019-04-06T02:51:33.021Z,100963.16
2019-04-06T02:52:09.359Z,100956.35
2019-04-06T02:52:45.636Z,100956.02
2019-04-06T02:53:21.843Z,100954.11
2019-04-06T02:53:58.072Z,100958.44
2019-04-06T02:54:34.408Z,100962.79
2019-04-06T02:55:10.709Z,100956.87
2019-04-06T02:55:46.965Z,100953.11
2019-04-06T02:56:23.329Z,100951.20
2019-04-06T02:56:59.718Z,100949.70
2019-04-06T02:57:35.978Z,100944.63
2019-04-06T02:58:12.454Z,100951.71
2019-04-06T02:58:48.768Z,100949.78
2019-04-06T02:59:25.085Z,100944.55
2019-04-06T03:00:01.327Z,100948.70
2019-04-06T03:00:37.784Z,100952.48
2019-04-06T03:01:14.061Z,100947.41
2019-04-06T03:01:50.311Z,100949.91
2019-04-06T03:02:27.020Z,100956.07
2019-04-06T03:03:03.306Z,100949.58
2019-04-06T03:03:39.846Z,100952.09
2019-04-06T03:04:16.167Z,100954.37
2019-04-06T03:04:52.911Z,100949.45
2019-04-06T03:05:29.614Z,100951.39
2019-04-06T03:06:06.198Z,100952.03
2019-04-06T03:06:42.376Z,100950.89
2019-04-06T03:07:18.583Z,100951.09
2019-04-06T03:07:55.007Z,100947.03
2019-04-06T03:08:31.254Z,100954.58
2019-04-06T03:09:11.270Z,100948.89
2019-04-06T03:09:46.296Z,100944.12
2019-04-06T03:10:22.760Z,100944.81
2019-04-06T03:10:59.120Z,100952.56
2019-04-06T03:11:35.444Z,100944.05
2019-04-06T03:12:11.782Z,100943.72
2019-04-06T03:12:48.089Z,100950.75
2019-04-06T03:13:24.577Z,100941.98
2019-04-06T03:14:00.817Z,100939.25
2019-04-06T03:14:37.407Z,100945.63
2019-04-06T03:15:14.035Z,100940.98
2019-04-06T03:15:50.413Z,100941.66
2019-04-06T03:16:26.839Z,100944.16
2019-04-06T03:17:03.209Z,100941.73
2019-04-06T03:17:39.558Z,100941.11
2019-04-06T03:18:15.736Z,100942.45
2019-04-06T03:18:52.168Z,100942.63
2019-04-06T03:19:28.384Z,100941.70
2019-04-06T03:20:04.557Z,100939.81
2019-04-06T03:20:40.593Z,100941.23
2019-04-06T03:21:16.815Z,100937.50
2019-04-06T03:21:52.899Z,100936.06
2019-04-06T03:22:29.222Z,100935.91
2019-04-06T03:23:05.386Z,100943.58
2019-04-06T03:23:50.588Z,100935.65
2019-04-06T03:24:19.899Z,100940.02
2019-04-06T03:24:56.078Z,100936.18
2019-04-06T03:25:32.229Z,100933.57
2019-04-06T03:26:08.316Z,100939.16
2019-04-06T03:26:59.793Z,100937.12
2019-04-06T03:27:26.631Z,100937.16
2019-04-06T03:28:03.743Z,100930.04
2019-04-06T03:28:40.032Z,100934.95
2019-04-06T03:29:16.876Z,100929.86
2019-04-06T03:29:58.523Z,100931.34
2019-04-06T03:30:31.543Z,100933.62
2019-04-06T03:31:07.684Z,100933.86
2019-04-06T03:31:44.063Z,100935.45
2019-04-06T03:32:20.630Z,100933.63
2019-04-06T03:32:57.181Z,100933.97
2019-04-06T03:33:33.396Z,100929.08
2019-04-06T03:34:09.881Z,100929.20
2019-04-06T03:34:46.003Z,100925.47
2019-04-06T03:35:22.311Z,100930.83
2019-04-06T03:35:59.132Z,100933.45
2019-04-06T03:36:35.358Z,100929.45
2019-04-06T03:37:11.474Z,100927.30
2019-04-06T03:37:47.766Z,100924.70
2019-04-06T03:38:24.011Z,100927.09
2019-04-06T03:39:00.364Z,100928.46
2019-04-06T03:39:36.435Z,100924.25
2019-04-06T03:40:12.649Z,100926.64
2019-04-06T03:40:48.914Z,100922.53
2019-04-06T03:41:25.120Z,100922.34
2019-04-06T03:42:01.243Z,100923.02
2019-04-06T03:42:37.856Z,100923.70
2019-04-06T03:43:14.089Z,100916.62
2019-04-06T03:43:50.213Z,100922.78
2019-04-06T03:44:26.542Z,100919.13
2019-04-06T03:45:02.897Z,100917.31
2019-04-06T03:45:38.933Z,100921.41
2019-04-06T03:46:15.382Z,100921.19
2019-04-06T03:46:51.704Z,100918.69
2019-04-06T03:47:27.994Z,100921.30
2019-04-06T03:48:04.309Z,100915.26
2019-04-06T03:48:40.863Z,100917.31
2019-04-06T03:49:17.150Z,100923.45
2019-04-06T03:49:53.298Z,100920.06
2019-04-06T03:50:29.903Z,100915.27
2019-04-06T03:51:06.218Z,100917.89
2019-04-06T03:51:42.507Z,100923.36
2019-04-06T03:52:18.628Z,100917.55
2019-04-06T03:52:54.845Z,100917.08
2019-04-06T03:53:31.053Z,100918.22
2019-04-06T03:54:07.653Z,100916.85
2019-04-06T03:54:44.048Z,100913.20
2019-04-06T03:55:20.124Z,100913.69
2019-04-06T03:55:56.273Z,100911.40
2019-04-06T03:56:32.437Z,100909.34
2019-04-06T03:57:16.291Z,100909.82
2019-04-06T03:57:46.809Z,100910.27
2019-04-06T03:58:23.010Z,100916.64
2019-04-06T03:58:59.154Z,100910.83
2019-04-06T03:59:35.393Z,100915.37
2019-04-06T04:00:13.293Z,100915.95
2019-04-06T04:00:49.397Z,100914.81
2019-04-06T04:01:25.556Z,100918.44
2019-04-06T04:02:02.362Z,100913.42
2019-04-06T04:02:38.453Z,100913.55
2019-04-06T04:03:14.631Z,100911.25
2019-04-06T04:03:51.231Z,100920.03
2019-04-06T04:04:27.553Z,100916.38
2019-04-06T04:05:03.664Z,100916.48
2019-04-06T04:05:40.048Z,100915.24
2019-04-06T04:06:16.560Z,100917.51
2019-04-06T04:06:53.689Z,100907.23
2019-04-06T04:07:30.029Z,100909.27
2019-04-06T04:08:06.649Z,100908.35
2019-04-06T04:08:42.671Z,100907.69
2019-04-06T04:09:18.893Z,100906.89
2019-04-06T04:09:55.102Z,100909.95
2019-04-06T04:10:49.183Z,100906.31
2019-04-06T04:11:25.463Z,100910.74
2019-04-06T04:12:01.773Z,100908.10
2019-04-06T04:12:38.019Z,100906.95
2019-04-06T04:13:14.188Z,100904.22
2019-04-06T04:13:50.334Z,100903.52
2019-04-06T04:14:26.462Z,100903.30
2019-04-06T04:15:02.953Z,100902.72
2019-04-06T04:15:39.365Z,100907.63
2019-04-06T04:16:15.429Z,100898.39
2019-04-06T04:16:51.702Z,100904.66
2019-04-06T04:17:28.104Z,100900.11
2019-04-06T04:18:06.213Z,100894.63
2019-04-06T04:18:42.439Z,100891.20
2019-04-06T04:19:18.752Z,100900.34
2019-04-06T04:19:55.000Z,100890.97
2019-04-06T04:20:31.302Z,100891.20
2019-04-06T04:21:07.500Z,100888.11
2019-04-06T04:21:43.700Z,100891.86
2019-04-06T04:22:20.120Z,100892.75
2019-04-06T04:22:56.507Z,100891.83
2019-04-06T04:23:32.819Z,100889.66
2019-04-06T04:24:09.490Z,100893.20
2019-04-06T04:24:45.651Z,100887.97
2019-04-06T04:25:21.829Z,100886.83
2019-04-06T04:25:58.056Z,100888.86
2019-04-06T04:26:34.398Z,100886.60
2019-04-06T04:27:10.492Z,100885.11
2019-04-06T04:27:47.507Z,100883.52
2019-04-06T04:28:23.933Z,100877.02
2019-04-06T04:29:00.060Z,100877.69
2019-04-06T04:29:36.244Z,100872.25
2019-04-06T04:30:15.022Z,100877.53
2019-04-06T04:30:50.705Z,100876.17
2019-04-06T04:31:26.936Z,100875.85
2019-04-06T04:32:04.005Z,100870.03
2019-04-06T04:32:40.584Z,100869.80
2019-04-06T04:33:16.838Z,100873.34
2019-04-06T04:33:53.004Z,100864.67
2019-04-06T04:34:29.172Z,100875.50
2019-04-06T04:35:05.409Z,100860.89
2019-04-06T04:35:41.611Z,100864.33
2019-04-06T04:36:17.734Z,100869.58
2019-04-06T04:36:53.889Z,100860.44
2019-04-06T04:37:30.168Z,100858.62
2019-04-06T04:38:06.313Z,100862.06
2019-04-06T04:38:42.450Z,100860.70
2019-04-06T04:39:18.576Z,100847.68
2019-04-06T04:39:54.758Z,100855.41
2019-04-06T04:40:31.069Z,100852.00
2019-04-06T04:41:07.866Z,100849.94
2019-04-06T04:41:44.073Z,100849.01
2019-04-06T04:42:20.318Z,100850.63
2019-04-06T04:42:56.455Z,100845.47
2019-04-06T04:43:32.689Z,100844.42
2019-04-06T04:44:08.910Z,100848.05
2019-04-06T04:44:45.036Z,100847.56
2019-04-06T04:45:21.309Z,100844.38
2019-04-06T04:45:57.580Z,100843.66
2019-04-06T04:46:33.713Z,100840.66
2019-04-06T04:47:09.921Z,100844.54
2019-04-06T04:47:46.080Z,100840.87
2019-04-06T04:48:22.200Z,100838.57
2019-04-06T04:48:58.490Z,100842.91
2019-04-06T04:49:34.850Z,100842.70
2019-04-06T04:50:11.462Z,100835.59
2019-04-06T04:50:47.937Z,100838.19
2019-04-06T04:51:24.083Z,100835.59
2019-04-06T04:52:00.418Z,100836.22
2019-04-06T04:52:36.615Z,100826.80
2019-04-06T04:53:12.854Z,100833.66
2019-04-06T04:53:49.502Z,100835.61
2019-04-06T04:54:26.084Z,100832.42
2019-04-06T04:55:02.226Z,100833.77
2019-04-06T04:55:38.460Z,100830.13
2019-04-06T04:56:14.550Z,100828.40
2019-04-06T04:56:50.845Z,100829.33
2019-04-06T04:57:27.113Z,100831.15
2019-04-06T04:58:03.692Z,100817.66
2019-04-06T04:58:39.970Z,100817.51
2019-04-06T04:59:16.103Z,100825.72
2019-04-06T04:59:52.244Z,100820.78
2019-04-06T05:00:28.394Z,100819.38
2019-04-06T05:01:04.649Z,100815.09
2019-04-06T05:01:40.839Z,100811.94
2019-04-06T05:02:17.069Z,100809.70
2019-04-06T05:02:54.080Z,100809.11
2019-04-06T05:03:30.165Z,100807.23
2019-04-06T05:04:06.291Z,100806.52
2019-04-06T05:04:42.267Z,100812.79
2019-04-06T05:05:18.451Z,100801.36
2019-04-06T05:05:54.517Z,100801.36
2019-04-06T05:06:30.772Z,100803.39
2019-04-06T05:07:06.911Z,100799.63
2019-04-06T05:07:43.087Z,100799.72
2019-04-06T05:08:19.293Z,100802.20
2019-04-06T05:08:55.406Z,100796.02
2019-04-06T05:09:31.552Z,100793.58
2019-04-06T05:10:11.727Z,100801.22
2019-04-06T05:10:47.886Z,100794.28
2019-04-06T05:11:23.838Z,100786.28
2019-04-06T05:12:00.110Z,100792.06
2019-04-06T05:12:36.231Z,100790.91
2019-04-06T05:13:12.385Z,100780.91
2019-04-06T05:13:48.847Z,100788.28
2019-04-06T05:15:01.828Z,100786.97
2019-04-06T05:16:17.949Z,100793.50
2019-04-06T05:16:54.106Z,100789.86
2019-04-06T05:17:30.269Z,100785.92
2019-04-06T05:18:06.368Z,100779.77
2019-04-06T05:18:43.032Z,100785.39
2019-04-06T05:19:19.414Z,100787.43
2019-04-06T05:19:55.678Z,100784.12
2019-04-06T05:20:31.868Z,100781.51
2019-04-06T05:21:08.157Z,100780.28
2019-04-06T05:21:44.352Z,100772.86
2019-04-06T05:22:20.531Z,100773.97
2019-04-06T05:22:56.657Z,100774.39
2019-04-06T05:23:32.846Z,100774.69
2019-04-06T05:24:09.845Z,100770.55
2019-04-06T05:24:45.981Z,100764.75
2019-04-06T05:25:22.300Z,100763.88
2019-04-06T05:25:58.370Z,100772.59
2019-04-06T05:26:37.991Z,100767.70
2019-04-06T05:27:12.523Z,100761.74
2019-04-06T05:27:52.536Z,100764.48
2019-04-06T05:28:27.997Z,100762.06
2019-04-06T05:29:04.094Z,100766.84
2019-04-06T05:29:40.221Z,100764.84
2019-04-06T05:30:16.595Z,100761.65
2019-04-06T05:30:52.715Z,100756.88
2019-04-06T05:31:28.790Z,100756.10
2019-04-06T05:32:05.003Z,100747.59
2019-04-06T05:32:41.600Z,100744.52
2019-04-06T05:33:17.687Z,100753.75
2019-04-06T05:33:54.070Z,100747.25
2019-04-06T05:34:30.333Z,100746.67
2019-04-06T05:35:06.675Z,100741.77
2019-04-06T05:35:42.813Z,100742.00
2019-04-06T05:36:19.045Z,100744.41
2019-04-06T05:36:55.262Z,100742.45
2019-04-06T05:37:32.070Z,100748.95
2019-04-06T05:38:08.189Z,100736.86
2019-04-06T05:38:44.367Z,100736.17
2019-04-06T05:39:20.655Z,100739.10
2019-04-06T05:39:56.673Z,100733.95
2019-04-06T05:40:32.746Z,100726.10
2019-04-06T05:41:35.432Z,100740.41
2019-04-06T05:42:11.790Z,100734.95
2019-04-06T05:42:49.342Z,100729.00
2019-04-06T05:43:25.710Z,100729.91
2019-04-06T05:44:02.183Z,100727.63
2019-04-06T05:44:38.815Z,100728.67
2019-04-06T05:45:15.215Z,100725.94
2019-04-06T05:45:56.323Z,100725.47
2019-04-06T05:46:32.586Z,100725.59
2019-04-06T05:47:08.909Z,100721.13
2019-04-06T05:47:50.711Z,100716.68
2019-04-06T05:48:29.407Z,100718.27
2019-04-06T05:49:27.196Z,100731.25
2019-04-06T05:50:05.288Z,100725.42
2019-04-06T05:50:41.497Z,100718.67
2019-04-06T05:51:17.901Z,100719.12
2019-04-06T05:52:11.679Z,100713.86
2019-04-06T05:52:50.836Z,100714.31
2019-04-06T05:53:29.722Z,100713.38
2019-04-06T05:54:14.992Z,100707.91
2019-04-06T05:54:54.588Z,100705.87
2019-04-06T05:55:33.183Z,100703.12
2019-04-06T05:56:13.272Z,100711.30
2019-04-06T05:56:53.836Z,100707.85
2019-04-06T05:57:32.360Z,100700.99
2019-04-06T05:58:14.026Z,100706.91
2019-04-06T05:58:53.347Z,100698.11
2019-04-06T05:59:32.980Z,100699.34
2019-04-06T06:00:10.582Z,100699.12
2019-04-06T06:00:48.587Z,100702.08
2019-04-06T06:01:24.785Z,100696.82
2019-04-06T06:02:21.304Z,100696.55
2019-04-06T06:03:03.310Z,100693.45
2019-04-06T06:03:42.164Z,100693.89
2019-04-06T06:04:23.078Z,100692.39
2019-04-06T06:05:11.977Z,100695.78
2019-04-06T06:05:56.143Z,100685.95
2019-04-06T06:06:34.853Z,100682.72
2019-04-06T06:07:12.882Z,100680.64
2019-04-06T06:07:53.417Z,100680.72
2019-04-06T06:08:31.262Z,100682.41
2019-04-06T06:09:20.139Z,100674.23
2019-04-06T06:10:01.878Z,100682.77
2019-04-06T06:10:41.438Z,100673.76
2019-04-06T06:11:17.711Z,100677.59
2019-04-06T06:11:56.323Z,100673.01
2019-04-06T06:12:35.099Z,100667.17
2019-04-06T06:13:12.671Z,100664.65
2019-04-06T06:13:52.122Z,100671.72
2019-04-06T06:14:30.810Z,100667.75
2019-04-06T06:15:07.353Z,100669.05
2019-04-06T06:15:47.500Z,100665.72
2019-04-06T06:16:24.489Z,100660.90
2019-04-06T06:17:08.730Z,100655.45
2019-04-06T06:17:44.984Z,100660.58
2019-04-06T06:18:41.080Z,100654.77
2019-04-06T06:19:54.553Z,100655.42
2019-04-06T06:20:33.719Z,100654.48
2019-04-06T06:21:14.366Z,100654.70
2019-04-06T06:21:51.872Z,100648.64
2019-04-06T06:22:28.001Z,100650.23
2019-04-06T06:23:04.442Z,100646.34
2019-04-06T06:23:44.720Z,100645.55
2019-04-06T06:24:23.707Z,100642.59
2019-04-06T06:25:02.253Z,100642.37
2019-04-06T06:26:35.776Z,100634.59
2019-04-06T06:27:12.871Z,100634.73
2019-04-06T06:28:14.932Z,100626.80
2019-04-06T06:29:10.664Z,100629.97
2019-04-06T06:29:48.960Z,100630.98
2019-04-06T06:30:27.661Z,100626.08
2019-04-06T06:31:05.895Z,100622.19
2019-04-06T06:31:43.041Z,100626.30
2019-04-06T06:32:20.609Z,100622.19
2019-04-06T06:32:57.745Z,100622.40
2019-04-06T06:33:34.680Z,100618.29
2019-04-06T06:34:10.845Z,100615.33
2019-04-06T06:34:47.588Z,100618.29
2019-04-06T06:35:23.895Z,100613.02
2019-04-06T06:36:00.991Z,100609.42
2019-04-06T06:36:38.547Z,100611.22
2019-04-06T06:37:15.595Z,100613.75
2019-04-06T06:38:06.568Z,100608.48
2019-04-06T06:38:44.065Z,100609.05
2019-04-06T06:39:20.440Z,100611.51
2019-04-06T06:40:11.789Z,100607.19
2019-04-06T06:40:48.542Z,100607.19
2019-04-06T06:41:25.959Z,100603.65
2019-04-06T06:42:03.663Z,100603.29
2019-04-06T06:42:42.073Z,100602.42
2019-04-06T06:43:20.989Z,100600.48
2019-04-06T06:43:58.198Z,100601.27
2019-04-06T06:44:35.224Z,100599.39
2019-04-06T06:45:14.558Z,100594.13
2019-04-06T06:46:11.604Z,100597.09
2019-04-06T06:46:58.224Z,100599.32
2019-04-06T06:47:40.566Z,100599.47
2019-04-06T06:48:16.893Z,100596.32
2019-04-06T06:48:55.140Z,100599.92
2019-04-06T06:49:31.367Z,100593.57
2019-04-06T06:50:08.371Z,100603.48
2019-04-06T06:50:49.068Z,100589.77
2019-04-06T06:51:26.289Z,100594.31
2019-04-06T06:52:23.028Z,100595.17
2019-04-06T06:53:04.806Z,100592.86
2019-04-06T06:53:52.846Z,100589.42
2019-04-06T06:54:29.349Z,100591.28
2019-04-06T06:55:06.253Z,100593.59
2019-04-06T06:55:56.078Z,100593.23
2019-04-06T06:56:37.814Z,100591.78
2019-04-06T06:57:15.417Z,100586.30
2019-04-06T06:57:52.603Z,100588.16
2019-04-06T06:58:29.086Z,100583.89
2019-04-06T06:59:10.765Z,100585.51
2019-04-06T06:59:50.630Z,100588.47
2019-04-06T07:00:36.507Z,100585.72
2019-04-06T07:01:17.103Z,100584.14
2019-04-06T07:01:53.596Z,100577.13
2019-04-06T07:02:30.733Z,100577.66
2019-04-06T07:03:11.193Z,100579.07
2019-04-06T07:03:48.338Z,100570.14
2019-04-06T07:04:25.360Z,100572.50
2019-04-06T07:05:03.163Z,100570.52
2019-04-06T07:05:45.511Z,100565.01
2019-04-06T07:06:21.810Z,100568.78
2019-04-06T07:07:00.904Z,100562.20
2019-04-06T07:07:37.389Z,100565.14
2019-04-06T07:08:14.037Z,100567.16
2019-04-06T07:08:50.968Z,100561.47
2019-04-06T07:09:27.683Z,100561.77
2019-04-06T07:10:07.274Z,100562.19
2019-04-06T07:10:43.624Z,100562.34
2019-04-06T07:11:19.789Z,100559.33
2019-04-06T07:12:08.183Z,100555.41
2019-04-06T07:12:48.061Z,100552.86
2019-04-06T07:13:26.496Z,100551.14